createdAt,value
2023-03-22T00:02:11.023Z,1.50
2023-03-22T00:04:37.828Z,1.15
2023-03-22T00:07:04.560Z,1.20
2023-03-22T00:09:31.806Z,1.85
2023-03-22T00:11:58.584Z,1.45
2023-03-22T00:14:25.687Z,1.83
2023-03-22T00:16:52.484Z,1.30
2023-03-22T00:19:19.340Z,2.00
2023-03-22T00:21:46.378Z,1.70
2023-03-22T00:24:13.334Z,2.08
2023-03-22T00:26:40.264Z,1.60
2023-03-22T00:29:06.968Z,1.80
2023-03-22T00:31:33.893Z,1.60
2023-03-22T00:34:00.754Z,2.35
2023-03-22T00:36:27.578Z,1.75
2023-03-22T00:38:54.398Z,2.00
2023-03-22T00:41:24.489Z,2.38
2023-03-22T00:43:51.687Z,2.35
2023-03-22T00:46:20.529Z,2.30
2023-03-22T00:48:48.265Z,2.13
2023-03-22T00:51:16.121Z,2.08
2023-03-22T00:53:43.759Z,2.55
2023-03-22T00:56:14.078Z,2.72
2023-03-22T01:01:08.708Z,2.70
2023-03-22T01:03:35.584Z,3.00
2023-03-22T01:06:02.620Z,2.30
2023-03-22T01:08:33.317Z,2.38
2023-03-22T01:11:01.342Z,2.33
2023-03-22T01:13:29.135Z,2.90
2023-03-22T01:15:56.356Z,2.35
2023-03-22T01:18:23.691Z,2.15
2023-03-22T01:20:51.740Z,2.30
2023-03-22T01:23:18.440Z,2.33
2023-03-22T01:25:45.125Z,2.10
2023-03-22T01:28:11.851Z,2.50
2023-03-22T01:30:40.852Z,2.55
2023-03-22T01:33:08.178Z,2.17
2023-03-22T01:35:36.077Z,1.67
2023-03-22T01:38:03.017Z,2.00
2023-03-22T01:40:29.871Z,2.00
2023-03-22T01:42:56.862Z,2.40
2023-03-22T01:45:40.828Z,2.17
2023-03-22T01:48:10.188Z,1.80
2023-03-22T01:50:39.297Z,2.30
2023-03-22T01:53:08.608Z,2.45
2023-03-22T01:55:35.934Z,2.95
2023-03-22T01:58:03.392Z,2.60
2023-03-22T02:00:30.539Z,2.33
2023-03-22T02:02:57.315Z,2.05
2023-03-22T02:05:25.920Z,2.30
2023-03-22T02:07:53.302Z,1.83
2023-03-22T02:10:24.289Z,2.53
2023-03-22T02:13:17.086Z,1.90
2023-03-22T02:15:56.021Z,2.10
2023-03-22T02:18:51.430Z,2.10
2023-03-22T02:21:41.598Z,2.70
2023-03-22T02:24:32.807Z,2.40
2023-03-22T02:27:27.983Z,2.42
2023-03-22T02:30:18.941Z,2.22
2023-03-22T02:33:12.209Z,3.38
2023-03-22T02:35:49.658Z,2.55
2023-03-22T02:38:45.782Z,3.63
2023-03-22T02:41:21.490Z,2.97
2023-03-22T02:44:00.178Z,3.50
2023-03-22T02:46:43.322Z,3.45
2023-03-22T02:49:28.583Z,3.67
2023-03-22T02:52:05.622Z,4.30
2023-03-22T02:54:44.768Z,3.72
2023-03-22T02:57:30.036Z,4.55
2023-03-22T02:59:58.954Z,4.50
2023-03-22T03:02:28.089Z,3.70
2023-03-22T03:04:56.712Z,5.10
2023-03-22T03:07:27.691Z,5.10
2023-03-22T03:09:54.708Z,6.20
2023-03-22T03:12:24.949Z,6.35
2023-03-22T03:14:52.130Z,5.47
2023-03-22T03:17:46.301Z,5.85
2023-03-22T03:20:16.838Z,6.18
2023-03-22T03:22:57.287Z,6.45
2023-03-22T03:25:38.293Z,6.72
2023-03-22T03:28:16.861Z,7.18
2023-03-22T03:30:49.513Z,8.10
2023-03-22T03:33:20.350Z,7.05
2023-03-22T03:35:54.569Z,7.10
2023-03-22T03:38:27.393Z,8.02
2023-03-22T03:40:59.030Z,7.60
2023-03-22T03:43:25.715Z,7.38
2023-03-22T03:45:54.152Z,8.07
2023-03-22T03:48:28.614Z,7.80
2023-03-22T03:50:57.380Z,8.27
2023-03-22T03:53:24.373Z,7.78
2023-03-22T03:55:51.173Z,7.72
2023-03-22T03:58:17.931Z,7.85
2023-03-22T04:00:46.324Z,7.72
2023-03-22T04:03:13.642Z,7.53
2023-03-22T04:05:40.690Z,7.97
2023-03-22T04:08:07.684Z,7.55
2023-03-22T04:10:34.394Z,7.55
2023-03-22T04:13:01.109Z,8.35
2023-03-22T04:15:27.852Z,8.20
2023-03-22T04:17:54.933Z,8.40
2023-03-22T04:20:21.863Z,7.53
2023-03-22T04:22:49.067Z,8.02
2023-03-22T04:25:18.117Z,7.90
2023-03-22T04:27:50.940Z,8.25
2023-03-22T04:30:21.603Z,7.30
2023-03-22T04:32:49.463Z,8.75
2023-03-22T04:35:16.844Z,7.65
2023-03-22T04:37:44.469Z,7.93
2023-03-22T04:40:17.279Z,8.38
2023-03-22T04:42:45.519Z,7.75
2023-03-22T04:45:13.497Z,7.95
2023-03-22T04:47:40.442Z,7.30
2023-03-22T04:50:08.128Z,7.25
2023-03-22T04:52:34.755Z,7.05
2023-03-22T04:55:01.614Z,8.07
2023-03-22T04:57:28.319Z,6.70
2023-03-22T04:59:54.964Z,7.13
2023-03-22T05:02:21.806Z,7.95
2023-03-22T05:04:48.483Z,8.02
2023-03-22T05:07:15.257Z,6.63
2023-03-22T05:09:41.988Z,6.70
2023-03-22T05:12:08.615Z,7.13
2023-03-22T05:14:35.258Z,6.20
2023-03-22T05:17:01.996Z,6.63
2023-03-22T05:19:29.048Z,6.80
2023-03-22T05:21:57.940Z,6.28
2023-03-22T05:24:24.864Z,6.55
2023-03-22T05:26:53.958Z,7.07
2023-03-22T05:29:21.484Z,6.53
2023-03-22T05:31:48.627Z,7.13
2023-03-22T05:34:15.571Z,5.68
2023-03-22T05:36:42.281Z,6.50
2023-03-22T05:39:08.992Z,5.95
2023-03-22T05:41:36.753Z,5.93
2023-03-22T05:44:05.972Z,5.75
2023-03-22T05:46:32.781Z,5.82
2023-03-22T05:48:59.655Z,6.25
2023-03-22T05:51:27.326Z,5.22
2023-03-22T05:53:54.454Z,6.20
2023-03-22T05:56:24.296Z,5.22
2023-03-22T05:58:51.758Z,5.60
2023-03-22T06:01:20.368Z,5.15
2023-03-22T06:03:48.580Z,5.30
2023-03-22T06:06:15.806Z,5.35
2023-03-22T06:08:43.301Z,4.32
2023-03-22T06:11:10.535Z,5.45
2023-03-22T06:13:37.486Z,5.40
2023-03-22T06:16:05.478Z,4.68
2023-03-22T06:18:33.179Z,5.10
2023-03-22T06:21:00.313Z,38.42
2023-03-22T06:23:27.540Z,12.75
2023-03-22T06:25:54.761Z,5.00
2023-03-22T06:28:21.713Z,4.85
2023-03-22T06:30:48.459Z,4.20
2023-03-22T06:33:15.348Z,3.80
2023-03-22T06:35:42.111Z,4.20
2023-03-22T06:38:09.849Z,4.07
2023-03-22T06:40:36.699Z,4.80
2023-03-22T06:43:06.858Z,4.47
2023-03-22T06:48:01.062Z,4.05
2023-03-22T06:50:29.071Z,4.15
2023-03-22T06:52:56.075Z,3.80
2023-03-22T06:55:22.917Z,4.05
2023-03-22T06:57:49.631Z,3.80
2023-03-22T07:00:16.878Z,3.40
2023-03-22T07:02:43.634Z,3.75
2023-03-22T07:05:10.729Z,3.05
2023-03-22T07:07:37.703Z,4.07
2023-03-22T07:10:05.198Z,3.20
2023-03-22T07:12:31.943Z,3.35
2023-03-22T07:14:58.820Z,3.95
2023-03-22T07:17:25.526Z,3.40
2023-03-22T07:19:52.292Z,3.08
2023-03-22T07:22:22.231Z,3.20
2023-03-22T07:24:56.522Z,2.97
2023-03-22T07:27:25.288Z,2.85
2023-03-22T07:29:52.535Z,2.60
2023-03-22T07:32:19.460Z,3.00
2023-03-22T07:34:46.425Z,2.22
2023-03-22T07:37:13.159Z,2.78
2023-03-22T07:39:39.882Z,2.67
2023-03-22T07:42:06.899Z,2.88
2023-03-22T07:44:33.757Z,2.80
2023-03-22T07:47:00.715Z,2.78
2023-03-22T07:49:27.674Z,3.03
2023-03-22T07:51:54.510Z,2.53
2023-03-22T07:54:32.846Z,2.20
2023-03-22T07:57:01.161Z,2.80
2023-03-22T07:59:28.355Z,2.42
2023-03-22T08:01:55.316Z,2.38
2023-03-22T08:04:22.700Z,2.03
2023-03-22T08:06:49.858Z,2.33
2023-03-22T08:09:17.255Z,2.30
2023-03-22T08:11:44.000Z,2.10
2023-03-22T08:14:10.833Z,1.70
2023-03-22T08:16:38.447Z,2.30
2023-03-22T08:19:05.624Z,1.90
2023-03-22T08:21:33.795Z,2.72
2023-03-22T08:24:00.934Z,2.08
2023-03-22T08:26:28.389Z,2.28
2023-03-22T08:28:56.122Z,2.08
2023-03-22T08:31:23.415Z,2.33
2023-03-22T08:33:50.354Z,1.98
2023-03-22T08:36:19.965Z,2.30
2023-03-22T08:38:46.772Z,2.70
2023-03-22T08:41:13.541Z,2.67
2023-03-22T08:43:40.346Z,2.33
2023-03-22T08:46:07.665Z,1.25
2023-03-22T08:48:35.820Z,2.70
2023-03-22T08:51:02.699Z,2.78
2023-03-22T08:53:29.593Z,1.45
2023-03-22T08:55:58.147Z,2.22
2023-03-22T08:58:25.072Z,2.42
2023-03-22T09:00:52.031Z,2.60
2023-03-22T09:03:19.007Z,2.45
2023-03-22T09:05:46.818Z,2.42
2023-03-22T09:08:18.854Z,3.03
2023-03-22T09:10:51.365Z,2.72
2023-03-22T09:13:18.815Z,2.25
2023-03-22T09:15:45.925Z,1.20
2023-03-22T09:18:13.204Z,2.47
2023-03-22T09:20:40.465Z,2.78
2023-03-22T09:23:07.379Z,2.72
2023-03-22T09:25:34.180Z,1.92
2023-03-22T09:28:01.148Z,2.50
2023-03-22T09:30:27.897Z,2.45
2023-03-22T09:32:54.696Z,2.95
2023-03-22T09:35:22.110Z,1.92
2023-03-22T09:37:49.576Z,2.92
2023-03-22T09:40:17.728Z,2.70
2023-03-22T09:42:52.125Z,2.80
2023-03-22T09:45:35.304Z,2.45
2023-03-22T09:48:06.997Z,2.53
2023-03-22T09:50:47.139Z,1.42
2023-03-22T09:53:15.694Z,2.45
2023-03-22T09:56:06.219Z,2.83
2023-03-22T10:01:13.998Z,2.60
2023-03-22T10:03:46.646Z,2.97
2023-03-22T10:06:18.351Z,2.53
2023-03-22T10:09:29.529Z,2.80
2023-03-22T10:12:04.971Z,2.70
2023-03-22T10:14:40.927Z,3.17
2023-03-22T10:17:18.425Z,2.00
2023-03-22T10:19:56.017Z,2.85
2023-03-22T10:22:29.902Z,2.72
2023-03-22T10:24:58.031Z,2.72
2023-03-22T10:27:27.065Z,2.60
2023-03-22T10:30:03.495Z,2.33
2023-03-22T10:32:57.894Z,3.08
2023-03-22T10:35:25.307Z,2.88
2023-03-22T10:37:54.106Z,2.33
2023-03-22T10:40:31.787Z,2.38
2023-03-22T10:43:23.493Z,2.70
2023-03-22T10:45:52.798Z,2.60
2023-03-22T10:48:27.934Z,2.53
2023-03-22T10:50:56.834Z,2.30
2023-03-22T10:53:39.886Z,2.40
2023-03-22T10:56:13.768Z,2.25
2023-03-22T10:58:40.732Z,2.35
2023-03-22T11:01:13.472Z,2.17
2023-03-22T11:03:42.936Z,2.75
2023-03-22T11:06:11.956Z,2.47
2023-03-22T11:08:50.447Z,2.65
2023-03-22T11:11:27.138Z,2.55
2023-03-22T11:14:19.413Z,3.33
2023-03-22T11:16:51.102Z,3.28
2023-03-22T11:19:26.649Z,3.03
2023-03-22T11:21:55.602Z,2.88
2023-03-22T11:24:26.369Z,2.47
2023-03-22T11:27:19.710Z,2.38
2023-03-22T11:29:49.313Z,2.63
2023-03-22T11:32:31.165Z,2.43
2023-03-22T11:35:20.466Z,2.10
2023-03-22T11:37:50.358Z,2.58
2023-03-22T11:40:21.241Z,2.10
2023-03-22T11:42:52.097Z,2.22
2023-03-22T11:45:32.969Z,1.95
2023-03-22T11:48:06.984Z,1.95
2023-03-22T11:50:40.246Z,2.00
2023-03-22T11:53:12.658Z,2.28
2023-03-22T11:55:39.652Z,1.90
2023-03-22T11:58:06.826Z,2.13
2023-03-22T12:00:42.944Z,1.70
2023-03-22T12:03:23.619Z,2.25
2023-03-22T12:05:52.506Z,2.30
2023-03-22T12:08:39.716Z,2.97
2023-03-22T12:11:12.021Z,3.30
2023-03-22T12:13:49.740Z,2.53
2023-03-22T12:16:24.879Z,2.05
2023-03-22T12:19:17.253Z,2.10
2023-03-22T12:21:46.229Z,2.22
2023-03-22T12:24:25.812Z,2.00
2023-03-22T12:26:56.804Z,2.40
2023-03-22T12:29:26.233Z,2.22
2023-03-22T12:32:05.136Z,2.30
2023-03-22T12:34:46.720Z,2.20
2023-03-22T12:37:35.812Z,2.30
2023-03-22T12:40:08.440Z,1.70
2023-03-22T12:42:51.831Z,2.17
2023-03-22T12:45:26.125Z,2.50
2023-03-22T12:48:06.023Z,2.60
2023-03-22T12:50:48.606Z,2.60
2023-03-22T12:53:17.903Z,2.55
2023-03-22T12:55:46.601Z,2.45
2023-03-22T12:58:20.380Z,2.40
2023-03-22T13:00:53.693Z,2.25
2023-03-22T13:03:45.514Z,2.50
2023-03-22T13:06:55.689Z,2.53
2023-03-22T13:09:28.737Z,2.70
2023-03-22T13:12:17.364Z,2.80
2023-03-22T13:14:56.946Z,2.78
2023-03-22T13:17:23.617Z,2.60
2023-03-22T13:19:59.261Z,2.63
2023-03-22T13:22:50.951Z,2.67
2023-03-22T13:25:19.000Z,2.40
2023-03-22T13:28:02.211Z,2.83
2023-03-22T13:30:52.498Z,2.63
2023-03-22T13:33:31.660Z,3.08
2023-03-22T13:36:25.729Z,2.50
2023-03-22T13:39:09.692Z,2.80
2023-03-22T13:41:36.716Z,2.83
2023-03-22T13:44:20.837Z,2.40
2023-03-22T13:46:53.514Z,2.53
2023-03-22T13:49:23.319Z,2.85
2023-03-22T13:51:50.990Z,2.85
2023-03-22T13:54:24.268Z,3.05
2023-03-22T13:57:00.851Z,2.72
2023-03-22T13:59:27.824Z,2.63
2023-03-22T14:02:04.934Z,2.30
2023-03-22T14:04:54.125Z,2.70
2023-03-22T14:07:46.512Z,2.20
2023-03-22T14:10:32.893Z,2.83
2023-03-22T14:13:14.702Z,2.60
2023-03-22T14:15:49.400Z,2.38
2023-03-22T14:18:21.341Z,2.40
2023-03-22T14:20:53.026Z,2.58
